sensor_id;sensor_type;location;lat;lon;timestamp;pressure;altitude;pressure_sealevel;temperature;humidity
47330;BME280;33060;50.178;7.570;2023-11-21T00:02:23;96246.06;;;11.00;100.00
47330;BME280;33060;50.178;7.570;2023-11-21T00:04:52;96254.25;;;10.97;100.00
47330;BME280;33060;50.178;7.570;2023-11-21T00:07:22;96251.47;;;10.98;100.00
47330;BME280;33060;50.178;7.570;2023-11-21T00:09:50;96264.22;;;10.93;100.00
47330;BME280;33060;50.178;7.570;2023-11-21T00:12:19;96258.81;;;10.53;100.00
47330;BME280;33060;50.178;7.570;2023-11-21T00:14:49;96263.94;;;10.75;100.00
47330;BME280;33060;50.178;7.570;2023-11-21T00:17:17;96259.78;;;10.52;100.00
47330;BME280;33060;50.178;7.570;2023-11-21T00:19:48;96262.97;;;10.24;100.00
47330;BME280;33060;50.178;7.570;2023-11-21T00:22:16;96261.88;;;10.37;100.00
47330;BME280;33060;50.178;7.570;2023-11-21T00:24:50;96252.97;;;10.38;100.00
47330;BME280;33060;50.178;7.570;2023-11-21T00:27:20;96273.06;;;9.96;100.00
47330;BME280;33060;50.178;7.570;2023-11-21T00:29:48;96275.41;;;10.22;100.00
47330;BME280;33060;50.178;7.570;2023-11-21T00:32:17;96274.63;;;9.99;100.00
47330;BME280;33060;50.178;7.570;2023-11-21T00:34:50;96280.00;;;10.08;100.00
47330;BME280;33060;50.178;7.570;2023-11-21T00:37:22;96282.56;;;10.42;100.00
47330;BME280;33060;50.178;7.570;2023-11-21T00:39:54;96284.72;;;9.71;100.00
47330;BME280;33060;50.178;7.570;2023-11-21T00:42:22;96281.06;;;10.17;100.00
47330;BME280;33060;50.178;7.570;2023-11-21T00:44:50;96285.38;;;10.18;100.00
47330;BME280;33060;50.178;7.570;2023-11-21T00:47:22;96289.69;;;10.19;100.00
47330;BME280;33060;50.178;7.570;2023-11-21T00:49:53;96290.22;;;10.45;100.00
47330;BME280;33060;50.178;7.570;2023-11-21T00:52:27;96288.47;;;10.34;100.00
47330;BME280;33060;50.178;7.570;2023-11-21T00:54:55;96300.59;;;10.26;100.00
47330;BME280;33060;50.178;7.570;2023-11-21T00:57:22;96294.03;;;10.09;100.00
47330;BME280;33060;50.178;7.570;2023-11-21T00:59:52;96292.81;;;10.13;100.00
47330;BME280;33060;50.178;7.570;2023-11-21T01:02:26;96297.72;;;10.29;100.00
47330;BME280;33060;50.178;7.570;2023-11-21T01:04:54;96305.00;;;10.36;100.00
47330;BME280;33060;50.178;7.570;2023-11-21T01:07:22;96309.75;;;10.54;100.00
47330;BME280;33060;50.178;7.570;2023-11-21T01:09:51;96310.31;;;10.57;100.00
47330;BME280;33060;50.178;7.570;2023-11-21T01:12:22;96319.03;;;10.69;100.00
47330;BME280;33060;50.178;7.570;2023-11-21T01:14:55;96318.22;;;10.57;100.00
47330;BME280;33060;50.178;7.570;2023-11-21T01:17:23;96321.69;;;10.58;100.00
47330;BME280;33060;50.178;7.570;2023-11-21T01:19:54;96326.72;;;10.29;100.00
47330;BME280;33060;50.178;7.570;2023-11-21T01:22:30;96329.63;;;9.92;100.00
47330;BME280;33060;50.178;7.570;2023-11-21T01:25:02;96332.88;;;9.73;100.00
47330;BME280;33060;50.178;7.570;2023-11-21T01:27:35;96338.59;;;9.56;100.00
47330;BME280;33060;50.178;7.570;2023-11-21T01:30:06;96337.16;;;9.52;100.00
47330;BME280;33060;50.178;7.570;2023-11-21T01:32:36;96334.88;;;9.70;100.00
47330;BME280;33060;50.178;7.570;2023-11-21T01:35:08;96330.66;;;9.45;100.00
47330;BME280;33060;50.178;7.570;2023-11-21T01:37:38;96338.47;;;9.57;100.00
47330;BME280;33060;50.178;7.570;2023-11-21T01:40:07;96344.09;;;9.75;100.00
47330;BME280;33060;50.178;7.570;2023-11-21T01:42:38;96350.31;;;9.85;100.00
47330;BME280;33060;50.178;7.570;2023-11-21T01:45:06;96350.16;;;9.31;100.00
47330;BME280;33060;50.178;7.570;2023-11-21T01:47:34;96353.41;;;9.46;100.00
47330;BME280;33060;50.178;7.570;2023-11-21T01:50:07;96350.06;;;9.88;100.00
47330;BME280;33060;50.178;7.570;2023-11-21T01:52:36;96357.72;;;9.47;100.00
47330;BME280;33060;50.178;7.570;2023-11-21T01:55:08;96347.78;;;10.29;100.00
47330;BME280;33060;50.178;7.570;2023-11-21T01:57:47;96356.78;;;9.93;100.00
47330;BME280;33060;50.178;7.570;2023-11-21T02:00:24;96357.50;;;9.61;100.00
47330;BME280;33060;50.178;7.570;2023-11-21T02:02:55;96353.66;;;9.54;100.00
47330;BME280;33060;50.178;7.570;2023-11-21T02:05:25;96353.16;;;9.38;100.00
47330;BME280;33060;50.178;7.570;2023-11-21T02:07:53;96348.03;;;10.03;100.00
47330;BME280;33060;50.178;7.570;2023-11-21T02:10:22;96353.31;;;9.47;100.00
47330;BME280;33060;50.178;7.570;2023-11-21T02:12:51;96345.66;;;9.67;100.00
47330;BME280;33060;50.178;7.570;2023-11-21T02:15:20;96349.13;;;9.67;100.00
47330;BME280;33060;50.178;7.570;2023-11-21T02:17:50;96357.00;;;9.33;100.00
47330;BME280;33060;50.178;7.570;2023-11-21T02:20:22;96360.97;;;9.39;100.00
47330;BME280;33060;50.178;7.570;2023-11-21T02:22:56;96358.00;;;9.66;100.00
47330;BME280;33060;50.178;7.570;2023-11-21T02:25:33;96362.97;;;10.14;100.00
47330;BME280;33060;50.178;7.570;2023-11-21T02:28:05;96362.78;;;10.28;100.00
47330;BME280;33060;50.178;7.570;2023-11-21T02:30:37;96367.78;;;9.42;100.00
47330;BME280;33060;50.178;7.570;2023-11-21T02:33:09;96370.31;;;9.77;100.00
47330;BME280;33060;50.178;7.570;2023-11-21T02:35:37;96373.06;;;9.98;100.00
47330;BME280;33060;50.178;7.570;2023-11-21T02:38:06;96382.50;;;9.55;100.00
47330;BME280;33060;50.178;7.570;2023-11-21T02:40:34;96375.00;;;9.73;100.00
47330;BME280;33060;50.178;7.570;2023-11-21T02:43:02;96374.38;;;9.58;100.00
47330;BME280;33060;50.178;7.570;2023-11-21T02:45:36;96373.91;;;9.87;100.00
47330;BME280;33060;50.178;7.570;2023-11-21T02:48:04;96379.75;;;9.57;100.00
47330;BME280;33060;50.178;7.570;2023-11-21T02:50:32;96373.53;;;9.69;100.00
47330;BME280;33060;50.178;7.570;2023-11-21T02:53:02;96374.28;;;9.82;100.00
47330;BME280;33060;50.178;7.570;2023-11-21T02:55:34;96374.16;;;9.84;100.00
47330;BME280;33060;50.178;7.570;2023-11-21T02:58:03;96380.94;;;9.64;100.00
47330;BME280;33060;50.178;7.570;2023-11-21T03:00:30;96379.03;;;9.55;100.00
47330;BME280;33060;50.178;7.570;2023-11-21T03:02:57;96375.78;;;9.40;100.00
47330;BME280;33060;50.178;7.570;2023-11-21T03:05:25;96377.97;;;9.57;100.00
47330;BME280;33060;50.178;7.570;2023-11-21T03:07:51;96376.13;;;9.47;100.00
47330;BME280;33060;50.178;7.570;2023-11-21T03:10:18;96380.94;;;9.64;100.00
47330;BME280;33060;50.178;7.570;2023-11-21T03:12:45;96377.13;;;9.68;100.00
47330;BME280;33060;50.178;7.570;2023-11-21T03:15:12;96383.59;;;9.86;100.00
47330;BME280;33060;50.178;7.570;2023-11-21T03:17:39;96401.09;;;9.76;100.00
47330;BME280;33060;50.178;7.570;2023-11-21T03:20:07;96399.34;;;9.42;100.00
47330;BME280;33060;50.178;7.570;2023-11-21T03:22:37;96402.72;;;9.55;100.00
47330;BME280;33060;50.178;7.570;2023-11-21T03:25:06;96409.88;;;9.30;100.00
47330;BME280;33060;50.178;7.570;2023-11-21T03:27:32;96406.88;;;9.46;100.00
47330;BME280;33060;50.178;7.570;2023-11-21T03:29:59;96424.44;;;9.23;100.00
47330;BME280;33060;50.178;7.570;2023-11-21T03:32:26;96425.38;;;9.22;100.00
47330;BME280;33060;50.178;7.570;2023-11-21T03:34:57;96423.03;;;9.30;100.00
47330;BME280;33060;50.178;7.570;2023-11-21T03:37:25;96415.41;;;9.61;100.00
47330;BME280;33060;50.178;7.570;2023-11-21T03:39:55;96416.56;;;9.34;100.00
47330;BME280;33060;50.178;7.570;2023-11-21T03:42:23;96417.66;;;9.43;100.00
47330;BME280;33060;50.178;7.570;2023-11-21T03:44:52;96425.66;;;9.30;100.00
47330;BME280;33060;50.178;7.570;2023-11-21T03:47:19;96424.38;;;9.47;100.00
47330;BME280;33060;50.178;7.570;2023-11-21T03:49:46;96420.66;;;9.39;100.00
47330;BME280;33060;50.178;7.570;2023-11-21T03:52:15;96427.75;;;9.60;100.00
47330;BME280;33060;50.178;7.570;2023-11-21T03:54:42;96426.34;;;9.90;100.00
47330;BME280;33060;50.178;7.570;2023-11-21T03:57:12;96436.25;;;9.18;100.00
47330;BME280;33060;50.178;7.570;2023-11-21T03:59:43;96432.28;;;9.47;100.00
47330;BME280;33060;50.178;7.570;2023-11-21T04:02:09;96440.69;;;9.28;100.00
47330;BME280;33060;50.178;7.570;2023-11-21T04:04:36;96449.16;;;9.21;100.00
47330;BME280;33060;50.178;7.570;2023-11-21T04:07:03;96438.59;;;9.45;100.00
47330;BME280;33060;50.178;7.570;2023-11-21T04:09:31;96448.09;;;9.58;100.00
47330;BME280;33060;50.178;7.570;2023-11-21T04:11:57;96457.81;;;8.99;100.00
47330;BME280;33060;50.178;7.570;2023-11-21T04:14:24;96457.25;;;9.06;100.00
47330;BME280;33060;50.178;7.570;2023-11-21T04:16:51;96455.63;;;9.17;100.00
47330;BME280;33060;50.178;7.570;2023-11-21T04:19:18;96464.34;;;9.52;100.00
47330;BME280;33060;50.178;7.570;2023-11-21T04:21:44;96448.63;;;9.75;100.00
47330;BME280;33060;50.178;7.570;2023-11-21T04:24:11;96470.44;;;9.53;100.00
47330;BME280;33060;50.178;7.570;2023-11-21T04:26:38;96468.50;;;9.44;100.00
47330;BME280;33060;50.178;7.570;2023-11-21T04:29:05;96476.25;;;9.34;100.00
47330;BME280;33060;50.178;7.570;2023-11-21T04:31:31;96485.34;;;9.30;100.00
47330;BME280;33060;50.178;7.570;2023-11-21T04:33:58;96478.81;;;9.93;100.00
47330;BME280;33060;50.178;7.570;2023-11-21T04:36:25;96483.44;;;9.67;100.00
47330;BME280;33060;50.178;7.570;2023-11-21T04:38:52;96496.66;;;9.54;100.00
47330;BME280;33060;50.178;7.570;2023-11-21T04:41:19;96496.97;;;8.91;100.00
47330;BME280;33060;50.178;7.570;2023-11-21T04:43:46;96507.44;;;9.62;100.00
47330;BME280;33060;50.178;7.570;2023-11-21T04:46:12;96488.38;;;9.83;100.00
47330;BME280;33060;50.178;7.570;2023-11-21T04:48:39;96507.97;;;9.68;100.00
47330;BME280;33060;50.178;7.570;2023-11-21T04:51:06;96505.13;;;9.47;100.00
47330;BME280;33060;50.178;7.570;2023-11-21T04:53:33;96517.94;;;9.16;100.00
47330;BME280;33060;50.178;7.570;2023-11-21T04:56:00;96518.97;;;8.90;100.00
47330;BME280;33060;50.178;7.570;2023-11-21T04:58:26;96518.50;;;9.79;100.00
47330;BME280;33060;50.178;7.570;2023-11-21T05:00:53;96520.94;;;9.82;100.00
47330;BME280;33060;50.178;7.570;2023-11-21T05:03:20;96526.09;;;9.24;100.00
47330;BME280;33060;50.178;7.570;2023-11-21T05:05:47;96521.53;;;9.50;100.00
47330;BME280;33060;50.178;7.570;2023-11-21T05:08:14;96529.19;;;9.88;100.00
47330;BME280;33060;50.178;7.570;2023-11-21T05:10:40;96518.66;;;9.88;100.00
47330;BME280;33060;50.178;7.570;2023-11-21T05:13:07;96525.75;;;9.64;100.00
47330;BME280;33060;50.178;7.570;2023-11-21T05:15:37;96533.34;;;9.69;100.00
47330;BME280;33060;50.178;7.570;2023-11-21T05:18:05;96538.16;;;9.75;100.00
47330;BME280;33060;50.178;7.570;2023-11-21T05:20:33;96535.59;;;9.38;100.00
47330;BME280;33060;50.178;7.570;2023-11-21T05:23:00;96540.56;;;9.89;100.00
47330;BME280;33060;50.178;7.570;2023-11-21T05:25:26;96537.09;;;9.29;100.00
47330;BME280;33060;50.178;7.570;2023-11-21T05:27:53;96543.69;;;9.83;100.00
47330;BME280;33060;50.178;7.570;2023-11-21T05:30:21;96545.63;;;9.57;100.00
47330;BME280;33060;50.178;7.570;2023-11-21T05:32:48;96545.41;;;9.71;100.00
47330;BME280;33060;50.178;7.570;2023-11-21T05:35:16;96551.22;;;9.87;100.00
47330;BME280;33060;50.178;7.570;2023-11-21T05:37:47;96550.19;;;10.01;100.00
47330;BME280;33060;50.178;7.570;2023-11-21T05:40:14;96556.53;;;9.63;100.00
47330;BME280;33060;50.178;7.570;2023-11-21T05:42:41;96549.31;;;9.89;100.00
47330;BME280;33060;50.178;7.570;2023-11-21T05:45:08;96549.25;;;10.02;100.00
47330;BME280;33060;50.178;7.570;2023-11-21T05:47:43;96545.31;;;10.08;100.00
47330;BME280;33060;50.178;7.570;2023-11-21T05:50:15;96551.47;;;9.25;100.00
47330;BME280;33060;50.178;7.570;2023-11-21T05:52:44;96555.22;;;9.34;100.00
47330;BME280;33060;50.178;7.570;2023-11-21T05:55:11;96553.84;;;9.52;100.00
47330;BME280;33060;50.178;7.570;2023-11-21T05:57:39;96547.00;;;9.74;100.00
47330;BME280;33060;50.178;7.570;2023-11-21T06:00:11;96552.63;;;9.45;100.00
47330;BME280;33060;50.178;7.570;2023-11-21T06:02:42;96558.16;;;9.88;100.00
47330;BME280;33060;50.178;7.570;2023-11-21T06:05:09;96557.19;;;9.78;100.00
47330;BME280;33060;50.178;7.570;2023-11-21T06:07:37;96566.56;;;9.34;100.00
47330;BME280;33060;50.178;7.570;2023-11-21T06:10:05;96569.09;;;9.36;100.00
47330;BME280;33060;50.178;7.570;2023-11-21T06:12:35;96571.59;;;9.61;100.00
47330;BME280;33060;50.178;7.570;2023-11-21T06:15:03;96571.25;;;9.31;100.00
47330;BME280;33060;50.178;7.570;2023-11-21T06:17:31;96587.59;;;9.47;100.00
47330;BME280;33060;50.178;7.570;2023-11-21T06:19:58;96582.56;;;9.79;100.00
47330;BME280;33060;50.178;7.570;2023-11-21T06:22:25;96584.88;;;9.36;100.00
47330;BME280;33060;50.178;7.570;2023-11-21T06:24:51;96589.63;;;9.55;100.00
47330;BME280;33060;50.178;7.570;2023-11-21T06:27:18;96594.63;;;9.47;100.00
47330;BME280;33060;50.178;7.570;2023-11-21T06:29:45;96599.44;;;9.53;100.00
47330;BME280;33060;50.178;7.570;2023-11-21T06:32:11;96599.56;;;9.75;100.00
47330;BME280;33060;50.178;7.570;2023-11-21T06:34:39;96598.16;;;8.98;100.00
47330;BME280;33060;50.178;7.570;2023-11-21T06:37:06;96605.38;;;9.44;100.00
47330;BME280;33060;50.178;7.570;2023-11-21T06:39:32;96603.47;;;9.22;100.00
47330;BME280;33060;50.178;7.570;2023-11-21T06:41:59;96619.94;;;9.13;100.00
47330;BME280;33060;50.178;7.570;2023-11-21T06:44:26;96620.66;;;9.02;100.00
47330;BME280;33060;50.178;7.570;2023-11-21T06:46:53;96627.75;;;8.76;100.00
47330;BME280;33060;50.178;7.570;2023-11-21T06:49:20;96628.97;;;9.21;100.00
47330;BME280;33060;50.178;7.570;2023-11-21T06:51:47;96629.69;;;9.11;100.00
47330;BME280;33060;50.178;7.570;2023-11-21T06:54:14;96634.63;;;9.52;100.00
47330;BME280;33060;50.178;7.570;2023-11-21T06:56:41;96639.25;;;9.12;100.00
47330;BME280;33060;50.178;7.570;2023-11-21T06:59:08;96643.34;;;9.28;100.00
47330;BME280;33060;50.178;7.570;2023-11-21T07:01:35;96645.19;;;9.76;100.00
47330;BME280;33060;50.178;7.570;2023-11-21T07:04:06;96654.25;;;8.98;100.00
47330;BME280;33060;50.178;7.570;2023-11-21T07:06:33;96656.22;;;9.57;100.00
47330;BME280;33060;50.178;7.570;2023-11-21T07:09:00;96654.69;;;9.42;100.00
47330;BME280;33060;50.178;7.570;2023-11-21T07:11:27;96659.25;;;9.99;100.00
47330;BME280;33060;50.178;7.570;2023-11-21T07:13:54;96661.31;;;9.47;100.00
47330;BME280;33060;50.178;7.570;2023-11-21T07:16:21;96664.13;;;9.44;100.00
47330;BME280;33060;50.178;7.570;2023-11-21T07:18:48;96667.06;;;9.52;100.00
47330;BME280;33060;50.178;7.570;2023-11-21T07:21:16;96668.06;;;9.39;100.00
47330;BME280;33060;50.178;7.570;2023-11-21T07:23:43;96677.56;;;9.65;100.00
47330;BME280;33060;50.178;7.570;2023-11-21T07:26:09;96690.31;;;9.22;100.00
47330;BME280;33060;50.178;7.570;2023-11-21T07:28:37;96699.72;;;9.50;100.00
47330;BME280;33060;50.178;7.570;2023-11-21T07:31:04;96702.28;;;9.39;100.00
47330;BME280;33060;50.178;7.570;2023-11-21T07:33:31;96710.59;;;9.32;100.00
47330;BME280;33060;50.178;7.570;2023-11-21T07:35:57;96701.53;;;9.37;100.00
47330;BME280;33060;50.178;7.570;2023-11-21T07:38:24;96696.91;;;9.77;100.00
47330;BME280;33060;50.178;7.570;2023-11-21T07:40:51;96701.31;;;10.24;100.00
47330;BME280;33060;50.178;7.570;2023-11-21T07:43:17;96704.72;;;10.26;100.00
47330;BME280;33060;50.178;7.570;2023-11-21T07:45:46;96709.16;;;9.65;100.00
47330;BME280;33060;50.178;7.570;2023-11-21T07:48:12;96718.09;;;9.39;100.00
47330;BME280;33060;50.178;7.570;2023-11-21T07:50:39;96720.97;;;9.47;100.00
47330;BME280;33060;50.178;7.570;2023-11-21T07:53:06;96723.97;;;9.79;100.00
47330;BME280;33060;50.178;7.570;2023-11-21T07:55:33;96726.84;;;9.14;100.00
47330;BME280;33060;50.178;7.570;2023-11-21T07:57:59;96727.97;;;9.35;100.00
47330;BME280;33060;50.178;7.570;2023-11-21T08:00:26;96727.78;;;9.25;100.00
47330;BME280;33060;50.178;7.570;2023-11-21T08:02:56;96736.16;;;9.43;100.00
47330;BME280;33060;50.178;7.570;2023-11-21T08:05:23;96737.47;;;9.25;100.00
47330;BME280;33060;50.178;7.570;2023-11-21T08:08:02;96747.28;;;8.97;100.00
47330;BME280;33060;50.178;7.570;2023-11-21T08:10:29;96757.47;;;9.02;100.00
47330;BME280;33060;50.178;7.570;2023-11-21T08:12:57;96748.25;;;9.46;100.00
47330;BME280;33060;50.178;7.570;2023-11-21T08:15:23;96757.13;;;9.45;100.00
47330;BME280;33060;50.178;7.570;2023-11-21T08:17:50;96753.53;;;9.58;100.00
47330;BME280;33060;50.178;7.570;2023-11-21T08:20:17;96764.31;;;9.17;100.00
47330;BME280;33060;50.178;7.570;2023-11-21T08:22:45;96761.53;;;9.94;100.00
47330;BME280;33060;50.178;7.570;2023-11-21T08:25:14;96771.22;;;9.44;100.00
47330;BME280;33060;50.178;7.570;2023-11-21T08:27:41;96769.81;;;9.63;100.00
47330;BME280;33060;50.178;7.570;2023-11-21T08:30:08;96773.09;;;9.54;100.00
47330;BME280;33060;50.178;7.570;2023-11-21T08:32:34;96785.66;;;9.51;100.00
47330;BME280;33060;50.178;7.570;2023-11-21T08:35:02;96774.94;;;9.90;100.00
47330;BME280;33060;50.178;7.570;2023-11-21T08:37:29;96785.47;;;9.41;100.00
47330;BME280;33060;50.178;7.570;2023-11-21T08:39:58;96780.91;;;9.56;100.00
47330;BME280;33060;50.178;7.570;2023-11-21T08:42:26;96782.19;;;9.50;100.00
47330;BME280;33060;50.178;7.570;2023-11-21T08:44:56;96776.44;;;10.06;100.00
47330;BME280;33060;50.178;7.570;2023-11-21T08:47:24;96772.69;;;10.21;100.00
47330;BME280;33060;50.178;7.570;2023-11-21T08:49:51;96773.38;;;10.12;100.00
47330;BME280;33060;50.178;7.570;2023-11-21T08:52:21;96779.44;;;9.52;100.00
47330;BME280;33060;50.178;7.570;2023-11-21T08:54:50;96779.63;;;9.61;100.00
47330;BME280;33060;50.178;7.570;2023-11-21T08:57:23;96778.00;;;9.72;100.00
47330;BME280;33060;50.178;7.570;2023-11-21T08:59:49;96791.34;;;9.19;100.00
47330;BME280;33060;50.178;7.570;2023-11-21T09:02:22;96789.25;;;9.24;100.00
47330;BME280;33060;50.178;7.570;2023-11-21T09:04:50;96794.66;;;9.72;100.00
47330;BME280;33060;50.178;7.570;2023-11-21T09:07:19;96790.72;;;9.28;100.00
47330;BME280;33060;50.178;7.570;2023-11-21T09:09:47;96800.41;;;9.41;100.00
47330;BME280;33060;50.178;7.570;2023-11-21T09:12:15;96792.91;;;9.60;100.00
47330;BME280;33060;50.178;7.570;2023-11-21T09:14:42;96799.22;;;9.57;100.00
47330;BME280;33060;50.178;7.570;2023-11-21T09:17:10;96802.09;;;9.42;100.00
47330;BME280;33060;50.178;7.570;2023-11-21T09:19:40;96811.69;;;9.30;100.00
47330;BME280;33060;50.178;7.570;2023-11-21T09:22:07;96807.16;;;9.81;100.00
47330;BME280;33060;50.178;7.570;2023-11-21T09:24:34;96811.34;;;9.97;100.00
47330;BME280;33060;50.178;7.570;2023-11-21T09:27:03;96814.53;;;10.02;100.00
47330;BME280;33060;50.178;7.570;2023-11-21T09:29:31;96813.22;;;10.07;100.00
47330;BME280;33060;50.178;7.570;2023-11-21T09:31:58;96824.47;;;9.85;100.00
47330;BME280;33060;50.178;7.570;2023-11-21T09:34:28;96817.59;;;9.96;100.00
47330;BME280;33060;50.178;7.570;2023-11-21T09:36:54;96820.88;;;9.86;100.00
47330;BME280;33060;50.178;7.570;2023-11-21T09:39:21;96827.03;;;10.11;100.00
47330;BME280;33060;50.178;7.570;2023-11-21T09:47:15;96847.81;;;10.03;100.00
47330;BME280;33060;50.178;7.570;2023-11-21T09:49:47;96839.72;;;10.42;100.00
47330;BME280;33060;50.178;7.570;2023-11-21T09:52:22;96852.66;;;10.09;100.00
47330;BME280;33060;50.178;7.570;2023-11-21T09:54:53;96856.16;;;9.97;100.00
47330;BME280;33060;50.178;7.570;2023-11-21T09:57:23;96860.50;;;9.72;100.00
47330;BME280;33060;50.178;7.570;2023-11-21T09:59:54;96871.69;;;9.63;100.00
47330;BME280;33060;50.178;7.570;2023-11-21T10:02:27;96866.44;;;10.12;100.00
47330;BME280;33060;50.178;7.570;2023-11-21T10:04:56;96869.81;;;10.99;100.00
47330;BME280;33060;50.178;7.570;2023-11-21T10:07:24;96872.22;;;10.43;100.00
47330;BME280;33060;50.178;7.570;2023-11-21T10:09:52;96869.28;;;10.83;100.00
47330;BME280;33060;50.178;7.570;2023-11-21T10:12:19;96864.75;;;10.61;100.00
47330;BME280;33060;50.178;7.570;2023-11-21T10:14:48;96870.38;;;10.67;100.00
47330;BME280;33060;50.178;7.570;2023-11-21T10:17:17;96873.13;;;10.42;100.00
47330;BME280;33060;50.178;7.570;2023-11-21T10:19:47;96879.50;;;10.14;100.00
47330;BME280;33060;50.178;7.570;2023-11-21T10:22:15;96877.19;;;10.59;100.00
47330;BME280;33060;50.178;7.570;2023-11-21T10:24:42;96883.91;;;10.39;100.00
47330;BME280;33060;50.178;7.570;2023-11-21T10:27:19;96882.13;;;10.39;100.00
47330;BME280;33060;50.178;7.570;2023-11-21T10:29:45;96886.97;;;9.83;100.00
47330;BME280;33060;50.178;7.570;2023-11-21T10:32:12;96876.41;;;10.69;100.00
47330;BME280;33060;50.178;7.570;2023-11-21T10:34:39;96876.22;;;10.84;100.00
47330;BME280;33060;50.178;7.570;2023-11-21T10:37:11;96889.06;;;9.91;100.00
47330;BME280;33060;50.178;7.570;2023-11-21T10:39:39;96870.56;;;10.16;100.00
47330;BME280;33060;50.178;7.570;2023-11-21T10:42:08;96875.59;;;9.83;100.00
47330;BME280;33060;50.178;7.570;2023-11-21T10:44:35;96876.84;;;10.39;100.00
47330;BME280;33060;50.178;7.570;2023-11-21T10:47:02;96872.94;;;11.39;100.00
47330;BME280;33060;50.178;7.570;2023-11-21T10:49:29;96880.56;;;10.61;100.00
47330;BME280;33060;50.178;7.570;2023-11-21T10:51:56;96881.25;;;11.11;100.00
47330;BME280;33060;50.178;7.570;2023-11-21T10:54:24;96882.19;;;10.74;100.00
47330;BME280;33060;50.178;7.570;2023-11-21T10:56:59;96879.53;;;10.74;100.00
47330;BME280;33060;50.178;7.570;2023-11-21T10:59:30;96882.69;;;10.80;100.00
47330;BME280;33060;50.178;7.570;2023-11-21T11:01:58;96882.13;;;10.87;100.00
47330;BME280;33060;50.178;7.570;2023-11-21T11:04:30;96886.28;;;10.55;100.00
47330;BME280;33060;50.178;7.570;2023-11-21T11:07:02;96884.09;;;10.72;100.00
47330;BME280;33060;50.178;7.570;2023-11-21T11:09:32;96892.47;;;10.30;100.00
47330;BME280;33060;50.178;7.570;2023-11-21T11:12:02;96891.22;;;10.35;100.00
47330;BME280;33060;50.178;7.570;2023-11-21T11:14:32;96887.94;;;10.19;100.00
47330;BME280;33060;50.178;7.570;2023-11-21T11:16:59;96889.72;;;10.31;100.00
47330;BME280;33060;50.178;7.570;2023-11-21T11:19:28;96892.00;;;10.72;100.00
47330;BME280;33060;50.178;7.570;2023-11-21T11:27:28;96888.69;;;10.34;100.00
47330;BME280;33060;50.178;7.570;2023-11-21T11:30:18;96881.44;;;10.48;100.00
47330;BME280;33060;50.178;7.570;2023-11-21T11:32:58;96882.16;;;10.51;100.00
47330;BME280;33060;50.178;7.570;2023-11-21T11:35:41;96881.97;;;10.54;100.00
47330;BME280;33060;50.178;7.570;2023-11-21T11:38:11;96887.09;;;10.18;100.00
47330;BME280;33060;50.178;7.570;2023-11-21T11:40:41;96875.66;;;10.67;100.00
47330;BME280;33060;50.178;7.570;2023-11-21T11:43:11;96882.56;;;11.51;100.00
47330;BME280;33060;50.178;7.570;2023-11-21T11:45:38;96880.69;;;11.76;100.00
47330;BME280;33060;50.178;7.570;2023-11-21T11:48:11;96886.47;;;11.35;100.00
47330;BME280;33060;50.178;7.570;2023-11-21T11:53:35;96899.03;;;10.61;100.00
47330;BME280;33060;50.178;7.570;2023-11-21T11:58:49;96900.16;;;10.20;100.00
47330;BME280;33060;50.178;7.570;2023-11-21T12:01:19;96902.00;;;10.56;100.00
47330;BME280;33060;50.178;7.570;2023-11-21T12:06:43;96900.97;;;10.94;100.00
47330;BME280;33060;50.178;7.570;2023-11-21T12:09:19;96897.41;;;10.71;100.00
47330;BME280;33060;50.178;7.570;2023-11-21T12:11:50;96905.72;;;10.78;100.00
47330;BME280;33060;50.178;7.570;2023-11-21T12:14:17;96905.25;;;11.08;100.00
47330;BME280;33060;50.178;7.570;2023-11-21T12:16:44;96910.75;;;10.57;100.00
47330;BME280;33060;50.178;7.570;2023-11-21T12:19:12;96907.59;;;10.75;100.00
47330;BME280;33060;50.178;7.570;2023-11-21T12:21:40;96913.47;;;11.27;100.00
47330;BME280;33060;50.178;7.570;2023-11-21T12:24:10;96915.16;;;10.69;100.00
47330;BME280;33060;50.178;7.570;2023-11-21T12:26:41;96925.84;;;9.67;100.00
47330;BME280;33060;50.178;7.570;2023-11-21T12:29:07;96928.91;;;10.48;100.00
47330;BME280;33060;50.178;7.570;2023-11-21T12:31:34;96918.31;;;10.37;100.00
47330;BME280;33060;50.178;7.570;2023-11-21T12:34:02;96926.38;;;10.47;100.00
47330;BME280;33060;50.178;7.570;2023-11-21T12:36:29;96927.13;;;10.49;100.00
47330;BME280;33060;50.178;7.570;2023-11-21T12:38:56;96931.19;;;10.29;100.00
47330;BME280;33060;50.178;7.570;2023-11-21T12:41:23;96928.97;;;10.10;100.00
47330;BME280;33060;50.178;7.570;2023-11-21T12:43:50;96937.53;;;10.27;100.00
47330;BME280;33060;50.178;7.570;2023-11-21T12:46:17;96933.50;;;10.70;100.00
47330;BME280;33060;50.178;7.570;2023-11-21T12:48:44;96931.00;;;10.56;100.00
47330;BME280;33060;50.178;7.570;2023-11-21T12:51:14;96936.50;;;10.53;100.00
47330;BME280;33060;50.178;7.570;2023-11-21T12:53:42;96943.41;;;10.05;100.00
47330;BME280;33060;50.178;7.570;2023-11-21T12:56:12;96942.63;;;10.54;100.00
47330;BME280;33060;50.178;7.570;2023-11-21T12:58:44;96943.69;;;10.75;100.00
47330;BME280;33060;50.178;7.570;2023-11-21T13:01:13;96950.06;;;10.96;100.00
47330;BME280;33060;50.178;7.570;2023-11-21T13:03:57;96948.09;;;10.87;100.00
47330;BME280;33060;50.178;7.570;2023-11-21T13:06:28;96945.63;;;11.21;100.00
47330;BME280;33060;50.178;7.570;2023-11-21T13:09:00;96948.00;;;11.13;100.00
47330;BME280;33060;50.178;7.570;2023-11-21T13:11:26;96961.63;;;10.33;100.00
47330;BME280;33060;50.178;7.570;2023-11-21T13:13:54;96957.63;;;10.15;100.00
47330;BME280;33060;50.178;7.570;2023-11-21T13:16:22;96958.03;;;10.47;100.00
47330;BME280;33060;50.178;7.570;2023-11-21T13:18:50;96956.34;;;11.07;100.00
47330;BME280;33060;50.178;7.570;2023-11-21T13:21:17;96963.19;;;10.61;100.00
47330;BME280;33060;50.178;7.570;2023-11-21T13:23:44;96958.63;;;10.63;100.00